sensor_id;sensor_type;location;lat;lon;timestamp;pressure;altitude;pressure_sealevel;temperature;humidity
63946;BME280;50122;56.330;43.838;2022-11-15T00:01:28;100871.69;;;-1.46;73.46
63946;BME280;50122;56.330;43.838;2022-11-15T00:03:55;100870.84;;;-1.45;73.26
63946;BME280;50122;56.330;43.838;2022-11-15T00:06:21;100860.47;;;-1.43;73.32
63946;BME280;50122;56.330;43.838;2022-11-15T00:08:48;100858.97;;;-1.29;72.15
63946;BME280;50122;56.330;43.838;2022-11-15T00:11:16;100853.75;;;-1.30;72.18
63946;BME280;50122;56.330;43.838;2022-11-15T00:13:42;100841.59;;;-1.34;71.97
63946;BME280;50122;56.330;43.838;2022-11-15T00:16:09;100856.38;;;-1.29;72.31
63946;BME280;50122;56.330;43.838;2022-11-15T00:18:38;100862.41;;;-1.30;72.23
63946;BME280;50122;56.330;43.838;2022-11-15T00:21:11;100864.22;;;-1.26;71.46
63946;BME280;50122;56.330;43.838;2022-11-15T00:23:38;100847.75;;;-1.28;70.70
63946;BME280;50122;56.330;43.838;2022-11-15T00:26:07;100856.38;;;-1.27;70.90
63946;BME280;50122;56.330;43.838;2022-11-15T00:28:33;100855.56;;;-1.23;70.77
63946;BME280;50122;56.330;43.838;2022-11-15T00:31:05;100848.56;;;-1.30;70.76
63946;BME280;50122;56.330;43.838;2022-11-15T00:33:32;100851.16;;;-1.30;70.71
63946;BME280;50122;56.330;43.838;2022-11-15T00:36:01;100843.41;;;-1.29;71.00
63946;BME280;50122;56.330;43.838;2022-11-15T00:38:35;100853.75;;;-1.30;70.92
63946;BME280;50122;56.330;43.838;2022-11-15T00:41:04;100850.09;;;-1.43;70.82
63946;BME280;50122;56.330;43.838;2022-11-15T00:43:35;100847.38;;;-1.54;70.80
63946;BME280;50122;56.330;43.838;2022-11-15T00:46:02;100831.81;;;-1.55;70.84
63946;BME280;50122;56.330;43.838;2022-11-15T00:48:29;100837.72;;;-1.64;71.02
63946;BME280;50122;56.330;43.838;2022-11-15T00:50:56;100840.28;;;-1.66;70.80
63946;BME280;50122;56.330;43.838;2022-11-15T00:53:23;100835.13;;;-1.64;70.55
63946;BME280;50122;56.330;43.838;2022-11-15T00:55:52;100819.38;;;-1.78;70.67
63946;BME280;50122;56.330;43.838;2022-11-15T00:58:19;100837.78;;;-1.61;70.76
63946;BME280;50122;56.330;43.838;2022-11-15T01:00:46;100844.75;;;-1.57;70.52
63946;BME280;50122;56.330;43.838;2022-11-15T01:03:13;100839.53;;;-1.59;70.43
63946;BME280;50122;56.330;43.838;2022-11-15T01:05:41;100839.53;;;-1.59;70.79
63946;BME280;50122;56.330;43.838;2022-11-15T01:08:12;100845.56;;;-1.60;70.18
63946;BME280;50122;56.330;43.838;2022-11-15T01:10:39;100834.34;;;-1.59;69.92
63946;BME280;50122;56.330;43.838;2022-11-15T01:13:06;100847.41;;;-1.52;69.68
63946;BME280;50122;56.330;43.838;2022-11-15T01:15:33;100835.31;;;-1.50;69.59
63946;BME280;50122;56.330;43.838;2022-11-15T01:18:00;100835.31;;;-1.50;69.33
63946;BME280;50122;56.330;43.838;2022-11-15T01:20:26;100832.59;;;-1.60;68.89
63946;BME280;50122;56.330;43.838;2022-11-15T01:22:54;100837.00;;;-1.55;69.63
63946;BME280;50122;56.330;43.838;2022-11-15T01:25:21;100826.63;;;-1.55;69.50
63946;BME280;50122;56.330;43.838;2022-11-15T01:27:48;100837.00;;;-1.55;69.28
63946;BME280;50122;56.330;43.838;2022-11-15T01:30:14;100843.94;;;-1.54;69.11
63946;BME280;50122;56.330;43.838;2022-11-15T01:32:41;100820.50;;;-1.59;69.00
63946;BME280;50122;56.330;43.838;2022-11-15T01:35:08;100827.38;;;-1.63;68.87
63946;BME280;50122;56.330;43.838;2022-11-15T01:37:34;100826.38;;;-1.71;69.28
63946;BME280;50122;56.330;43.838;2022-11-15T01:40:02;100832.53;;;-1.64;69.37
63946;BME280;50122;56.330;43.838;2022-11-15T01:42:29;100828.19;;;-1.67;69.41
63946;BME280;50122;56.330;43.838;2022-11-15T01:44:56;100829.91;;;-1.67;69.17
63946;BME280;50122;56.330;43.838;2022-11-15T01:47:26;100851.53;;;-1.65;69.78
63946;BME280;50122;56.330;43.838;2022-11-15T01:50:05;100836.81;;;-1.66;69.58
63946;BME280;50122;56.330;43.838;2022-11-15T01:52:34;100850.63;;;-1.69;69.26
63946;BME280;50122;56.330;43.838;2022-11-15T01:55:19;100823.72;;;-1.76;69.06
63946;BME280;50122;56.330;43.838;2022-11-15T01:57:48;100835.81;;;-1.76;69.75
63946;BME280;50122;56.330;43.838;2022-11-15T02:00:17;100833.22;;;-1.78;69.57
63946;BME280;50122;56.330;43.838;2022-11-15T02:02:43;100816.72;;;-1.83;69.29
63946;BME280;50122;56.330;43.838;2022-11-15T02:05:11;100815.94;;;-1.77;69.35
63946;BME280;50122;56.330;43.838;2022-11-15T02:07:37;100825.34;;;-1.82;69.69
63946;BME280;50122;56.330;43.838;2022-11-15T02:10:10;100821.06;;;-1.82;69.38
63946;BME280;50122;56.330;43.838;2022-11-15T02:12:39;100841.84;;;-1.77;69.99
63946;BME280;50122;56.330;43.838;2022-11-15T02:15:07;100809.78;;;-1.84;69.26
63946;BME280;50122;56.330;43.838;2022-11-15T02:20:41;100822.09;;;-1.70;69.37
63946;BME280;50122;56.330;43.838;2022-11-15T02:26:31;100823.78;;;-1.72;69.49
63946;BME280;50122;56.330;43.838;2022-11-15T02:29:09;100829.81;;;-1.72;69.31
63946;BME280;50122;56.330;43.838;2022-11-15T02:31:51;100820.19;;;-1.79;70.10
63946;BME280;50122;56.330;43.838;2022-11-15T02:34:43;100824.56;;;-1.78;70.01
63946;BME280;50122;56.330;43.838;2022-11-15T02:37:23;100807.97;;;-1.88;70.03
63946;BME280;50122;56.330;43.838;2022-11-15T02:40:13;100822.72;;;-1.84;70.47
63946;BME280;50122;56.330;43.838;2022-11-15T02:42:50;100822.78;;;-1.81;70.55
63946;BME280;50122;56.330;43.838;2022-11-15T02:45:46;100820.16;;;-1.84;70.72
63946;BME280;50122;56.330;43.838;2022-11-15T02:48:15;100817.63;;;-1.79;70.31
63946;BME280;50122;56.330;43.838;2022-11-15T18:29:23;100813.34;;;-2.31;78.25
63946;BME280;50122;56.330;43.838;2022-11-15T18:31:51;100831.69;;;-2.17;78.96
63946;BME280;50122;56.330;43.838;2022-11-15T18:34:26;100835.38;;;-2.02;79.18
63946;BME280;50122;56.330;43.838;2022-11-15T18:36:58;100838.97;;;-1.94;80.08
63946;BME280;50122;56.330;43.838;2022-11-15T18:39:25;100804.28;;;-2.04;80.72
63946;BME280;50122;56.330;43.838;2022-11-15T18:42:12;100823.59;;;-1.85;80.55
63946;BME280;50122;56.330;43.838;2022-11-15T18:44:39;100806.16;;;-1.95;81.02
63946;BME280;50122;56.330;43.838;2022-11-15T18:47:08;100834.97;;;-1.75;80.68
63946;BME280;50122;56.330;43.838;2022-11-15T18:49:35;100828.09;;;-1.73;80.87
63946;BME280;50122;56.330;43.838;2022-11-15T18:52:02;100833.41;;;-1.64;80.45
63946;BME280;50122;56.330;43.838;2022-11-15T18:54:28;100837.81;;;-1.57;80.43
63946;BME280;50122;56.330;43.838;2022-11-15T18:56:57;100829.25;;;-1.52;80.12
63946;BME280;50122;56.330;43.838;2022-11-15T18:59:23;100827.69;;;-1.41;77.55
63946;BME280;50122;56.330;43.838;2022-11-15T19:01:53;100804.22;;;-1.50;76.89
63946;BME280;50122;56.330;43.838;2022-11-15T19:04:19;100818.13;;;-1.44;76.80
63946;BME280;50122;56.330;43.838;2022-11-15T19:06:49;100833.72;;;-1.41;76.44
63946;BME280;50122;56.330;43.838;2022-11-15T19:09:17;100829.34;;;-1.46;75.37
63946;BME280;50122;56.330;43.838;2022-11-15T19:11:45;100819.66;;;-1.60;76.12
63946;BME280;50122;56.330;43.838;2022-11-15T19:14:14;100817.00;;;-1.64;75.51
63946;BME280;50122;56.330;43.838;2022-11-15T19:16:46;100817.63;;;-1.79;75.86
63946;BME280;50122;56.330;43.838;2022-11-15T19:19:22;100832.41;;;-1.72;75.78
63946;BME280;50122;56.330;43.838;2022-11-15T19:21:50;100832.38;;;-1.73;75.80
63946;BME280;50122;56.330;43.838;2022-11-15T19:24:21;100827.97;;;-1.79;76.27
63946;BME280;50122;56.330;43.838;2022-11-15T19:26:48;100827.19;;;-1.75;76.41
63946;BME280;50122;56.330;43.838;2022-11-15T19:29:15;100833.28;;;-1.73;76.05
63946;BME280;50122;56.330;43.838;2022-11-15T19:31:45;100820.19;;;-1.79;75.59
63946;BME280;50122;56.330;43.838;2022-11-15T19:34:13;100827.16;;;-1.77;75.96
63946;BME280;50122;56.330;43.838;2022-11-15T19:36:43;100814.22;;;-1.77;76.23
63946;BME280;50122;56.330;43.838;2022-11-15T19:39:13;100824.59;;;-1.75;76.01
63946;BME280;50122;56.330;43.838;2022-11-15T19:41:48;100819.38;;;-1.77;75.83
63946;BME280;50122;56.330;43.838;2022-11-15T19:44:15;100816.94;;;-1.67;76.59
63946;BME280;50122;56.330;43.838;2022-11-15T19:46:42;100815.25;;;-1.65;76.42
63946;BME280;50122;56.330;43.838;2022-11-15T19:49:12;100818.75;;;-1.62;75.85
63946;BME280;50122;56.330;43.838;2022-11-15T19:51:39;100814.41;;;-1.64;76.10
63946;BME280;50122;56.330;43.838;2022-11-15T19:54:08;100807.53;;;-1.59;75.65
63946;BME280;50122;56.330;43.838;2022-11-15T19:56:36;100819.84;;;-1.46;75.42
63946;BME280;50122;56.330;43.838;2022-11-15T19:59:12;100813.75;;;-1.48;75.98
63946;BME280;50122;56.330;43.838;2022-11-15T20:01:39;100812.06;;;-1.46;75.08
63946;BME280;50122;56.330;43.838;2022-11-15T20:04:10;100822.50;;;-1.41;75.24
63946;BME280;50122;56.330;43.838;2022-11-15T20:06:39;100820.81;;;-1.37;75.21
63946;BME280;50122;56.330;43.838;2022-11-15T20:09:10;100813.00;;;-1.39;74.93
63946;BME280;50122;56.330;43.838;2022-11-15T20:11:38;100802.56;;;-1.45;75.25
63946;BME280;50122;56.330;43.838;2022-11-15T20:14:08;100816.44;;;-1.42;75.09
63946;BME280;50122;56.330;43.838;2022-11-15T20:16:38;100811.97;;;-1.50;74.44
63946;BME280;50122;56.330;43.838;2022-11-15T20:19:06;100820.63;;;-1.53;73.97
63946;BME280;50122;56.330;43.838;2022-11-15T20:21:37;100786.69;;;-1.70;74.63
63946;BME280;50122;56.330;43.838;2022-11-15T20:24:04;100825.81;;;-1.53;74.07
63946;BME280;50122;56.330;43.838;2022-11-15T20:26:31;100812.66;;;-1.64;74.21
63946;BME280;50122;56.330;43.838;2022-11-15T20:28:58;100811.78;;;-1.67;74.23
63946;BME280;50122;56.330;43.838;2022-11-15T20:31:26;100826.44;;;-1.66;74.19
63946;BME280;50122;56.330;43.838;2022-11-15T20:33:54;100811.59;;;-1.78;73.46
63946;BME280;50122;56.330;43.838;2022-11-15T20:36:21;100817.72;;;-1.73;73.85
63946;BME280;50122;56.330;43.838;2022-11-15T20:38:47;100822.91;;;-1.75;73.81
63946;BME280;50122;56.330;43.838;2022-11-15T20:41:14;100813.38;;;-1.76;73.25
63946;BME280;50122;56.330;43.838;2022-11-15T20:43:41;100819.50;;;-1.70;73.65
63946;BME280;50122;56.330;43.838;2022-11-15T20:46:10;100818.66;;;-1.68;73.35
63946;BME280;50122;56.330;43.838;2022-11-15T20:48:37;100823.88;;;-1.65;73.18
63946;BME280;50122;56.330;43.838;2022-11-15T20:51:15;100808.28;;;-1.68;73.65
63946;BME280;50122;56.330;43.838;2022-11-15T20:53:44;100801.38;;;-1.70;73.13
63946;BME280;50122;56.330;43.838;2022-11-15T20:56:16;100802.25;;;-1.68;73.84
63946;BME280;50122;56.330;43.838;2022-11-15T20:58:44;100803.16;;;-1.65;73.43
63946;BME280;50122;56.330;43.838;2022-11-15T21:01:17;100812.63;;;-1.67;72.70
63946;BME280;50122;56.330;43.838;2022-11-15T21:03:53;100808.22;;;-1.74;73.13
63946;BME280;50122;56.330;43.838;2022-11-15T21:06:21;100808.22;;;-1.74;73.29
63946;BME280;50122;56.330;43.838;2022-11-15T21:08:49;100812.53;;;-1.75;72.93
63946;BME280;50122;56.330;43.838;2022-11-15T21:11:35;100798.72;;;-1.72;73.63
63946;BME280;50122;56.330;43.838;2022-11-15T21:14:21;100779.56;;;-1.83;72.61
63946;BME280;50122;56.330;43.838;2022-11-15T21:16:48;100725.56;;;-2.15;72.27
63946;BME280;50122;56.330;43.838;2022-11-15T21:19:14;100779.63;;;-1.79;72.19
63946;BME280;50122;56.330;43.838;2022-11-15T21:21:41;100801.41;;;-1.66;72.59
63946;BME280;50122;56.330;43.838;2022-11-15T21:24:09;100802.28;;;-1.65;72.83
63946;BME280;50122;56.330;43.838;2022-11-15T21:26:36;100784.97;;;-1.66;72.66
63946;BME280;50122;56.330;43.838;2022-11-15T21:29:03;100791.13;;;-1.61;72.53
63946;BME280;50122;56.330;43.838;2022-11-15T21:31:30;100791.13;;;-1.60;73.14
63946;BME280;50122;56.330;43.838;2022-11-15T21:34:00;100784.19;;;-1.62;72.62
63946;BME280;50122;56.330;43.838;2022-11-15T21:36:27;100799.75;;;-1.61;72.79
63946;BME280;50122;56.330;43.838;2022-11-15T21:38:55;100792.91;;;-1.55;73.26
63946;BME280;50122;56.330;43.838;2022-11-15T21:41:22;100770.34;;;-1.64;72.78
63946;BME280;50122;56.330;43.838;2022-11-15T21:43:48;100793.91;;;-1.47;72.67
63946;BME280;50122;56.330;43.838;2022-11-15T21:46:17;100793.00;;;-1.48;72.27
63946;BME280;50122;56.330;43.838;2022-11-15T21:48:44;100789.59;;;-1.47;72.13
63946;BME280;50122;56.330;43.838;2022-11-15T21:51:11;100779.97;;;-1.55;72.14
63946;BME280;50122;56.330;43.838;2022-11-15T21:53:37;100793.84;;;-1.50;72.78
63946;BME280;50122;56.330;43.838;2022-11-15T21:56:04;100793.81;;;-1.52;72.63
63946;BME280;50122;56.330;43.838;2022-11-15T21:58:32;100793.78;;;-1.55;72.68
63946;BME280;50122;56.330;43.838;2022-11-15T22:01:00;100795.50;;;-1.55;73.01
63946;BME280;50122;56.330;43.838;2022-11-15T22:03:45;100786.78;;;-1.61;72.51
63946;BME280;50122;56.330;43.838;2022-11-15T22:06:13;100779.94;;;-1.59;73.43
63946;BME280;50122;56.330;43.838;2022-11-15T22:08:44;100785.16;;;-1.54;72.75
63946;BME280;50122;56.330;43.838;2022-11-15T22:11:12;100791.16;;;-1.57;73.44
63946;BME280;50122;56.330;43.838;2022-11-15T22:13:39;100787.72;;;-1.57;72.74
63946;BME280;50122;56.330;43.838;2022-11-15T22:16:07;100790.34;;;-1.55;73.05
63946;BME280;50122;56.330;43.838;2022-11-15T22:18:34;100785.13;;;-1.57;73.56
63946;BME280;50122;56.330;43.838;2022-11-15T22:21:05;100786.97;;;-1.48;72.87
63946;BME280;50122;56.330;43.838;2022-11-15T22:23:32;100787.88;;;-1.45;73.47
63946;BME280;50122;56.330;43.838;2022-11-15T22:25:59;100781.84;;;-1.42;73.27
63946;BME280;50122;56.330;43.838;2022-11-15T22:28:26;100780.09;;;-1.43;72.93
63946;BME280;50122;56.330;43.838;2022-11-15T22:30:54;100788.84;;;-1.38;71.93
63946;BME280;50122;56.330;43.838;2022-11-15T22:33:23;100787.88;;;-1.43;71.66
63946;BME280;50122;56.330;43.838;2022-11-15T22:35:51;100785.97;;;-1.58;72.24
63946;BME280;50122;56.330;43.838;2022-11-15T22:38:18;100781.56;;;-1.64;72.54
63946;BME280;50122;56.330;43.838;2022-11-15T22:40:45;100780.81;;;-1.55;72.41
63946;BME280;50122;56.330;43.838;2022-11-15T22:43:19;100784.34;;;-1.51;72.79
63946;BME280;50122;56.330;43.838;2022-11-15T22:45:59;100772.94;;;-1.64;72.25
63946;BME280;50122;56.330;43.838;2022-11-15T22:48:34;100768.47;;;-1.75;73.04
63946;BME280;50122;56.330;43.838;2022-11-15T22:51:03;100792.75;;;-1.68;72.61
63946;BME280;50122;56.330;43.838;2022-11-15T22:53:30;100777.09;;;-1.74;73.39
63946;BME280;50122;56.330;43.838;2022-11-15T22:55:59;100787.59;;;-1.65;73.15
63946;BME280;50122;56.330;43.838;2022-11-15T22:58:28;100788.50;;;-1.63;73.39
63946;BME280;50122;56.330;43.838;2022-11-15T23:00:57;100791.16;;;-1.58;73.04
63946;BME280;50122;56.330;43.838;2022-11-15T23:03:25;100792.00;;;-1.59;72.60
63946;BME280;50122;56.330;43.838;2022-11-15T23:05:52;100791.06;;;-1.64;73.42
63946;BME280;50122;56.330;43.838;2022-11-15T23:08:21;100796.31;;;-1.60;73.78
63946;BME280;50122;56.330;43.838;2022-11-15T23:10:48;100787.66;;;-1.62;73.48
63946;BME280;50122;56.330;43.838;2022-11-15T23:13:34;100785.84;;;-1.67;73.76
63946;BME280;50122;56.330;43.838;2022-11-15T23:16:04;100786.72;;;-1.67;73.54
63946;BME280;50122;56.330;43.838;2022-11-15T23:19:05;100792.84;;;-1.62;74.00
63946;BME280;50122;56.330;43.838;2022-11-15T23:21:33;100795.47;;;-1.59;73.94
63946;BME280;50122;56.330;43.838;2022-11-15T23:24:20;100780.78;;;-1.58;73.96
63946;BME280;50122;56.330;43.838;2022-11-15T23:26:49;100787.75;;;-1.55;73.79
63946;BME280;50122;56.330;43.838;2022-11-15T23:29:17;100755.53;;;-1.73;74.43
63946;BME280;50122;56.330;43.838;2022-11-15T23:31:45;100783.41;;;-1.57;74.14
63946;BME280;50122;56.330;43.838;2022-11-15T23:34:31;100781.72;;;-1.54;74.14
63946;BME280;50122;56.330;43.838;2022-11-15T23:37:01;100763.44;;;-1.64;74.19
63946;BME280;50122;56.330;43.838;2022-11-15T23:39:28;100774.75;;;-1.57;74.78
63946;BME280;50122;56.330;43.838;2022-11-15T23:41:55;100775.56;;;-1.61;74.65
63946;BME280;50122;56.330;43.838;2022-11-15T23:44:22;100775.53;;;-1.64;75.10
63946;BME280;50122;56.330;43.838;2022-11-15T23:46:49;100769.44;;;-1.66;74.87
63946;BME280;50122;56.330;43.838;2022-11-15T23:49:16;100772.91;;;-1.66;74.67
63946;BME280;50122;56.330;43.838;2022-11-15T23:51:44;100765.09;;;-1.69;75.46
63946;BME280;50122;56.330;43.838;2022-11-15T23:54:11;100767.72;;;-1.67;75.38
63946;BME280;50122;56.330;43.838;2022-11-15T23:56:38;100774.75;;;-1.59;75.42
63946;BME280;50122;56.330;43.838;2022-11-15T23:59:05;100775.59;;;-1.58;75.42
